sensor_id;sensor_type;location;lat;lon;timestamp;P1;durP1;ratioP1;P2;durP2;ratioP2
57401;SDS011;43226;51.110;6.998;2023-05-14T00:00:45;6.87;;;5.83;;
57401;SDS011;43226;51.110;6.998;2023-05-14T00:03:11;7.23;;;5.67;;
57401;SDS011;43226;51.110;6.998;2023-05-14T00:05:36;8.53;;;6.20;;
57401;SDS011;43226;51.110;6.998;2023-05-14T00:08:01;10.43;;;7.63;;
57401;SDS011;43226;51.110;6.998;2023-05-14T00:10:26;8.23;;;6.80;;
57401;SDS011;43226;51.110;6.998;2023-05-14T00:12:52;13.13;;;8.13;;
57401;SDS011;43226;51.110;6.998;2023-05-14T00:15:17;11.67;;;8.13;;
57401;SDS011;43226;51.110;6.998;2023-05-14T00:17:42;9.20;;;7.00;;
57401;SDS011;43226;51.110;6.998;2023-05-14T00:20:08;8.80;;;6.97;;
57401;SDS011;43226;51.110;6.998;2023-05-14T00:22:35;15.80;;;6.50;;
57401;SDS011;43226;51.110;6.998;2023-05-14T00:25:01;10.23;;;5.90;;
57401;SDS011;43226;51.110;6.998;2023-05-14T00:27:26;10.20;;;7.20;;
57401;SDS011;43226;51.110;6.998;2023-05-14T00:29:51;7.33;;;6.03;;
57401;SDS011;43226;51.110;6.998;2023-05-14T00:32:16;7.73;;;5.07;;
57401;SDS011;43226;51.110;6.998;2023-05-14T00:34:42;7.13;;;5.50;;
57401;SDS011;43226;51.110;6.998;2023-05-14T00:37:07;9.13;;;5.87;;
57401;SDS011;43226;51.110;6.998;2023-05-14T00:39:32;9.00;;;5.40;;
57401;SDS011;43226;51.110;6.998;2023-05-14T00:41:58;12.00;;;6.27;;
57401;SDS011;43226;51.110;6.998;2023-05-14T00:44:23;6.60;;;5.00;;
57401;SDS011;43226;51.110;6.998;2023-05-14T00:46:48;6.80;;;5.17;;
57401;SDS011;43226;51.110;6.998;2023-05-14T00:49:13;9.70;;;6.70;;
57401;SDS011;43226;51.110;6.998;2023-05-14T00:51:38;7.53;;;5.50;;
57401;SDS011;43226;51.110;6.998;2023-05-14T00:54:05;6.00;;;5.17;;
57401;SDS011;43226;51.110;6.998;2023-05-14T00:56:30;7.07;;;5.20;;
57401;SDS011;43226;51.110;6.998;2023-05-14T00:58:55;6.97;;;5.17;;
57401;SDS011;43226;51.110;6.998;2023-05-14T01:01:21;8.63;;;5.97;;
57401;SDS011;43226;51.110;6.998;2023-05-14T01:03:46;7.90;;;5.80;;
57401;SDS011;43226;51.110;6.998;2023-05-14T01:08:45;6.53;;;5.00;;
57401;SDS011;43226;51.110;6.998;2023-05-14T01:11:18;9.63;;;5.50;;
57401;SDS011;43226;51.110;6.998;2023-05-14T01:14:03;14.90;;;5.40;;
57401;SDS011;43226;51.110;6.998;2023-05-14T01:16:32;5.77;;;4.60;;
57401;SDS011;43226;51.110;6.998;2023-05-14T01:18:57;5.80;;;5.07;;
57401;SDS011;43226;51.110;6.998;2023-05-14T01:21:26;14.23;;;5.97;;
57401;SDS011;43226;51.110;6.998;2023-05-14T01:23:56;8.17;;;4.90;;
57401;SDS011;43226;51.110;6.998;2023-05-14T01:26:22;8.03;;;5.67;;
57401;SDS011;43226;51.110;6.998;2023-05-14T01:28:47;6.80;;;6.00;;
57401;SDS011;43226;51.110;6.998;2023-05-14T01:31:16;7.20;;;5.30;;
57401;SDS011;43226;51.110;6.998;2023-05-14T01:33:42;16.63;;;5.83;;
57401;SDS011;43226;51.110;6.998;2023-05-14T01:36:07;5.23;;;4.73;;
57401;SDS011;43226;51.110;6.998;2023-05-14T01:38:33;5.00;;;4.40;;
57401;SDS011;43226;51.110;6.998;2023-05-14T01:40:59;7.83;;;5.83;;
57401;SDS011;43226;51.110;6.998;2023-05-14T01:43:24;6.60;;;6.00;;
57401;SDS011;43226;51.110;6.998;2023-05-14T01:45:49;7.43;;;5.27;;
57401;SDS011;43226;51.110;6.998;2023-05-14T01:48:15;7.83;;;6.07;;
57401;SDS011;43226;51.110;6.998;2023-05-14T01:50:40;6.47;;;5.37;;
57401;SDS011;43226;51.110;6.998;2023-05-14T01:53:05;6.00;;;4.67;;
57401;SDS011;43226;51.110;6.998;2023-05-14T01:55:31;5.03;;;4.20;;
57401;SDS011;43226;51.110;6.998;2023-05-14T01:57:56;8.10;;;4.53;;
57401;SDS011;43226;51.110;6.998;2023-05-14T02:00:21;6.33;;;5.30;;
57401;SDS011;43226;51.110;6.998;2023-05-14T02:02:47;13.47;;;6.03;;
57401;SDS011;43226;51.110;6.998;2023-05-14T02:05:12;9.90;;;5.57;;
57401;SDS011;43226;51.110;6.998;2023-05-14T02:07:37;7.80;;;4.97;;
57401;SDS011;43226;51.110;6.998;2023-05-14T02:10:03;5.27;;;4.40;;
57401;SDS011;43226;51.110;6.998;2023-05-14T02:12:28;7.23;;;6.03;;
57401;SDS011;43226;51.110;6.998;2023-05-14T02:14:53;13.60;;;6.13;;
57401;SDS011;43226;51.110;6.998;2023-05-14T02:17:19;5.87;;;4.53;;
57401;SDS011;43226;51.110;6.998;2023-05-14T02:19:44;12.57;;;5.60;;
57401;SDS011;43226;51.110;6.998;2023-05-14T02:22:10;7.70;;;5.50;;
57401;SDS011;43226;51.110;6.998;2023-05-14T02:24:35;6.00;;;5.07;;
57401;SDS011;43226;51.110;6.998;2023-05-14T02:27:00;6.60;;;5.80;;
57401;SDS011;43226;51.110;6.998;2023-05-14T02:29:26;8.20;;;5.30;;
57401;SDS011;43226;51.110;6.998;2023-05-14T02:31:51;8.70;;;5.40;;
57401;SDS011;43226;51.110;6.998;2023-05-14T02:34:16;6.50;;;5.57;;
57401;SDS011;43226;51.110;6.998;2023-05-14T02:36:41;7.23;;;4.50;;
57401;SDS011;43226;51.110;6.998;2023-05-14T02:39:07;7.07;;;5.50;;
57401;SDS011;43226;51.110;6.998;2023-05-14T02:41:32;8.37;;;6.03;;
57401;SDS011;43226;51.110;6.998;2023-05-14T02:43:57;6.43;;;5.30;;
57401;SDS011;43226;51.110;6.998;2023-05-14T02:46:22;7.90;;;5.30;;
57401;SDS011;43226;51.110;6.998;2023-05-14T02:48:48;8.70;;;5.00;;
57401;SDS011;43226;51.110;6.998;2023-05-14T02:51:13;11.33;;;5.87;;
57401;SDS011;43226;51.110;6.998;2023-05-14T02:53:38;6.87;;;5.10;;
57401;SDS011;43226;51.110;6.998;2023-05-14T02:56:03;7.50;;;6.50;;
57401;SDS011;43226;51.110;6.998;2023-05-14T02:58:28;6.83;;;5.33;;
57401;SDS011;43226;51.110;6.998;2023-05-14T03:00:54;7.10;;;5.80;;
57401;SDS011;43226;51.110;6.998;2023-05-14T03:03:19;6.03;;;5.43;;
57401;SDS011;43226;51.110;6.998;2023-05-14T03:05:45;6.40;;;5.47;;
57401;SDS011;43226;51.110;6.998;2023-05-14T03:08:10;8.93;;;6.23;;
57401;SDS011;43226;51.110;6.998;2023-05-14T03:10:35;9.10;;;5.20;;
57401;SDS011;43226;51.110;6.998;2023-05-14T03:13:01;8.43;;;5.90;;
57401;SDS011;43226;51.110;6.998;2023-05-14T03:15:26;8.60;;;5.13;;
57401;SDS011;43226;51.110;6.998;2023-05-14T03:17:51;7.10;;;4.93;;
57401;SDS011;43226;51.110;6.998;2023-05-14T03:20:16;9.07;;;5.50;;
57401;SDS011;43226;51.110;6.998;2023-05-14T03:22:41;11.53;;;5.83;;
57401;SDS011;43226;51.110;6.998;2023-05-14T03:25:07;6.20;;;5.40;;
57401;SDS011;43226;51.110;6.998;2023-05-14T03:27:32;7.60;;;5.87;;
57401;SDS011;43226;51.110;6.998;2023-05-14T03:29:58;8.03;;;5.30;;
57401;SDS011;43226;51.110;6.998;2023-05-14T03:32:23;8.60;;;4.93;;
57401;SDS011;43226;51.110;6.998;2023-05-14T03:34:48;7.87;;;5.50;;
57401;SDS011;43226;51.110;6.998;2023-05-14T03:37:14;6.17;;;5.53;;
57401;SDS011;43226;51.110;6.998;2023-05-14T03:39:39;6.87;;;5.40;;
57401;SDS011;43226;51.110;6.998;2023-05-14T03:42:04;7.60;;;5.57;;
57401;SDS011;43226;51.110;6.998;2023-05-14T03:44:29;13.20;;;4.90;;
57401;SDS011;43226;51.110;6.998;2023-05-14T03:46:54;6.17;;;5.60;;
57401;SDS011;43226;51.110;6.998;2023-05-14T03:49:20;6.50;;;4.87;;
57401;SDS011;43226;51.110;6.998;2023-05-14T03:51:45;7.47;;;5.53;;
57401;SDS011;43226;51.110;6.998;2023-05-14T03:54:10;8.50;;;5.60;;
57401;SDS011;43226;51.110;6.998;2023-05-14T03:56:35;8.37;;;6.37;;
57401;SDS011;43226;51.110;6.998;2023-05-14T03:59:00;6.17;;;5.57;;
57401;SDS011;43226;51.110;6.998;2023-05-14T04:01:26;7.40;;;5.60;;
57401;SDS011;43226;51.110;6.998;2023-05-14T04:03:51;8.97;;;6.27;;
57401;SDS011;43226;51.110;6.998;2023-05-14T04:06:16;8.23;;;6.07;;
57401;SDS011;43226;51.110;6.998;2023-05-14T04:08:41;5.97;;;4.80;;
57401;SDS011;43226;51.110;6.998;2023-05-14T04:11:06;17.03;;;5.47;;
57401;SDS011;43226;51.110;6.998;2023-05-14T04:13:32;6.03;;;5.30;;
57401;SDS011;43226;51.110;6.998;2023-05-14T04:15:57;5.50;;;5.00;;
57401;SDS011;43226;51.110;6.998;2023-05-14T04:18:22;7.68;;;5.07;;
57401;SDS011;43226;51.110;6.998;2023-05-14T04:20:47;7.37;;;5.00;;
57401;SDS011;43226;51.110;6.998;2023-05-14T04:23:13;7.13;;;5.13;;
57401;SDS011;43226;51.110;6.998;2023-05-14T04:25:38;4.70;;;4.30;;
57401;SDS011;43226;51.110;6.998;2023-05-14T04:28:03;5.90;;;5.30;;
57401;SDS011;43226;51.110;6.998;2023-05-14T04:30:28;7.33;;;4.97;;
57401;SDS011;43226;51.110;6.998;2023-05-14T04:32:53;8.80;;;4.97;;
57401;SDS011;43226;51.110;6.998;2023-05-14T04:35:19;6.73;;;5.00;;
57401;SDS011;43226;51.110;6.998;2023-05-14T04:37:45;6.07;;;4.93;;
57401;SDS011;43226;51.110;6.998;2023-05-14T04:40:10;5.63;;;5.00;;
57401;SDS011;43226;51.110;6.998;2023-05-14T04:42:36;5.40;;;4.90;;
57401;SDS011;43226;51.110;6.998;2023-05-14T04:45:01;5.20;;;4.53;;
57401;SDS011;43226;51.110;6.998;2023-05-14T04:47:29;4.57;;;4.17;;
57401;SDS011;43226;51.110;6.998;2023-05-14T04:49:54;10.37;;;4.77;;
57401;SDS011;43226;51.110;6.998;2023-05-14T04:52:19;6.77;;;4.40;;
57401;SDS011;43226;51.110;6.998;2023-05-14T04:54:44;9.20;;;5.13;;
57401;SDS011;43226;51.110;6.998;2023-05-14T04:57:10;5.07;;;4.57;;
57401;SDS011;43226;51.110;6.998;2023-05-14T04:59:35;4.83;;;4.33;;
57401;SDS011;43226;51.110;6.998;2023-05-14T05:02:00;5.07;;;4.47;;
57401;SDS011;43226;51.110;6.998;2023-05-14T05:04:26;4.70;;;4.30;;
57401;SDS011;43226;51.110;6.998;2023-05-14T05:06:51;6.07;;;4.60;;
57401;SDS011;43226;51.110;6.998;2023-05-14T05:09:17;5.63;;;4.30;;
57401;SDS011;43226;51.110;6.998;2023-05-14T05:11:42;4.83;;;3.90;;
57401;SDS011;43226;51.110;6.998;2023-05-14T05:14:07;4.50;;;4.10;;
57401;SDS011;43226;51.110;6.998;2023-05-14T05:16:32;5.07;;;4.57;;
57401;SDS011;43226;51.110;6.998;2023-05-14T05:18:57;4.27;;;3.87;;
57401;SDS011;43226;51.110;6.998;2023-05-14T05:21:23;5.20;;;4.70;;
57401;SDS011;43226;51.110;6.998;2023-05-14T05:23:48;13.43;;;3.77;;
57401;SDS011;43226;51.110;6.998;2023-05-14T05:26:13;4.93;;;4.30;;
57401;SDS011;43226;51.110;6.998;2023-05-14T05:28:38;4.38;;;4.07;;
57401;SDS011;43226;51.110;6.998;2023-05-14T05:31:04;4.20;;;3.70;;
57401;SDS011;43226;51.110;6.998;2023-05-14T05:33:29;7.00;;;4.60;;
57401;SDS011;43226;51.110;6.998;2023-05-14T05:35:54;5.50;;;5.00;;
57401;SDS011;43226;51.110;6.998;2023-05-14T05:38:19;5.40;;;4.83;;
57401;SDS011;43226;51.110;6.998;2023-05-14T05:40:45;5.20;;;4.70;;
57401;SDS011;43226;51.110;6.998;2023-05-14T05:43:10;7.07;;;4.87;;
57401;SDS011;43226;51.110;6.998;2023-05-14T05:45:37;5.60;;;4.20;;
57401;SDS011;43226;51.110;6.998;2023-05-14T05:48:02;5.90;;;5.30;;
57401;SDS011;43226;51.110;6.998;2023-05-14T05:50:29;6.20;;;5.30;;
57401;SDS011;43226;51.110;6.998;2023-05-14T05:52:55;6.50;;;5.00;;
57401;SDS011;43226;51.110;6.998;2023-05-14T05:55:20;8.17;;;5.20;;
57401;SDS011;43226;51.110;6.998;2023-05-14T05:57:46;7.03;;;5.00;;
57401;SDS011;43226;51.110;6.998;2023-05-14T06:00:11;6.20;;;5.07;;
57401;SDS011;43226;51.110;6.998;2023-05-14T06:02:37;6.50;;;5.60;;
57401;SDS011;43226;51.110;6.998;2023-05-14T06:05:02;5.87;;;4.90;;
57401;SDS011;43226;51.110;6.998;2023-05-14T06:07:27;5.20;;;4.40;;
57401;SDS011;43226;51.110;6.998;2023-05-14T06:09:52;5.68;;;5.15;;
57401;SDS011;43226;51.110;6.998;2023-05-14T06:12:18;8.03;;;4.40;;
57401;SDS011;43226;51.110;6.998;2023-05-14T06:14:43;6.80;;;5.30;;
57401;SDS011;43226;51.110;6.998;2023-05-14T06:17:08;7.80;;;6.00;;
57401;SDS011;43226;51.110;6.998;2023-05-14T06:19:35;11.23;;;5.00;;
57401;SDS011;43226;51.110;6.998;2023-05-14T06:22:00;9.83;;;6.20;;
57401;SDS011;43226;51.110;6.998;2023-05-14T06:24:26;5.90;;;4.70;;
57401;SDS011;43226;51.110;6.998;2023-05-14T06:26:51;8.15;;;6.13;;
57401;SDS011;43226;51.110;6.998;2023-05-14T06:29:17;23.00;;;5.47;;
57401;SDS011;43226;51.110;6.998;2023-05-14T06:31:42;6.13;;;5.40;;
57401;SDS011;43226;51.110;6.998;2023-05-14T06:34:07;6.50;;;5.80;;
57401;SDS011;43226;51.110;6.998;2023-05-14T06:36:33;7.23;;;6.40;;
57401;SDS011;43226;51.110;6.998;2023-05-14T06:38:58;12.20;;;6.00;;
57401;SDS011;43226;51.110;6.998;2023-05-14T06:41:23;6.77;;;6.00;;
57401;SDS011;43226;51.110;6.998;2023-05-14T06:43:48;9.30;;;5.60;;
57401;SDS011;43226;51.110;6.998;2023-05-14T06:46:13;8.00;;;6.97;;
57401;SDS011;43226;51.110;6.998;2023-05-14T06:48:39;6.40;;;5.33;;
57401;SDS011;43226;51.110;6.998;2023-05-14T06:51:04;6.07;;;5.47;;
57401;SDS011;43226;51.110;6.998;2023-05-14T06:53:29;6.93;;;5.47;;
57401;SDS011;43226;51.110;6.998;2023-05-14T06:55:55;8.30;;;5.00;;
57401;SDS011;43226;51.110;6.998;2023-05-14T06:58:20;6.70;;;6.00;;
57401;SDS011;43226;51.110;6.998;2023-05-14T07:00:45;8.97;;;5.63;;
57401;SDS011;43226;51.110;6.998;2023-05-14T07:03:10;8.57;;;5.50;;
57401;SDS011;43226;51.110;6.998;2023-05-14T07:05:35;6.80;;;5.57;;
57401;SDS011;43226;51.110;6.998;2023-05-14T07:08:00;7.10;;;5.20;;
57401;SDS011;43226;51.110;6.998;2023-05-14T07:10:26;5.60;;;5.10;;
57401;SDS011;43226;51.110;6.998;2023-05-14T07:12:51;17.23;;;5.30;;
57401;SDS011;43226;51.110;6.998;2023-05-14T07:15:16;5.80;;;5.00;;
57401;SDS011;43226;51.110;6.998;2023-05-14T07:17:41;6.37;;;5.00;;
57401;SDS011;43226;51.110;6.998;2023-05-14T07:20:07;7.90;;;4.90;;
57401;SDS011;43226;51.110;6.998;2023-05-14T07:22:32;5.90;;;4.67;;
57401;SDS011;43226;51.110;6.998;2023-05-14T07:24:57;15.30;;;5.40;;
57401;SDS011;43226;51.110;6.998;2023-05-14T07:27:22;6.70;;;4.50;;
57401;SDS011;43226;51.110;6.998;2023-05-14T07:29:48;9.67;;;5.50;;
57401;SDS011;43226;51.110;6.998;2023-05-14T07:32:13;5.47;;;4.80;;
57401;SDS011;43226;51.110;6.998;2023-05-14T07:34:39;8.03;;;5.40;;
57401;SDS011;43226;51.110;6.998;2023-05-14T07:37:04;5.33;;;4.83;;
57401;SDS011;43226;51.110;6.998;2023-05-14T07:39:29;5.37;;;4.87;;
57401;SDS011;43226;51.110;6.998;2023-05-14T07:41:54;6.93;;;4.50;;
57401;SDS011;43226;51.110;6.998;2023-05-14T07:44:20;7.37;;;4.87;;
57401;SDS011;43226;51.110;6.998;2023-05-14T07:46:45;5.30;;;4.60;;
57401;SDS011;43226;51.110;6.998;2023-05-14T07:49:10;5.83;;;4.93;;
57401;SDS011;43226;51.110;6.998;2023-05-14T07:51:35;7.53;;;5.00;;
57401;SDS011;43226;51.110;6.998;2023-05-14T07:54:00;5.60;;;5.00;;
57401;SDS011;43226;51.110;6.998;2023-05-14T07:56:26;6.67;;;5.00;;
57401;SDS011;43226;51.110;6.998;2023-05-14T07:58:51;6.73;;;5.30;;
57401;SDS011;43226;51.110;6.998;2023-05-14T08:01:16;5.73;;;5.23;;
57401;SDS011;43226;51.110;6.998;2023-05-14T08:03:41;7.80;;;4.70;;
57401;SDS011;43226;51.110;6.998;2023-05-14T08:06:07;5.10;;;4.70;;
57401;SDS011;43226;51.110;6.998;2023-05-14T08:08:32;6.63;;;5.50;;
57401;SDS011;43226;51.110;6.998;2023-05-14T08:10:57;6.97;;;5.63;;
57401;SDS011;43226;51.110;6.998;2023-05-14T08:13:22;9.17;;;6.70;;
57401;SDS011;43226;51.110;6.998;2023-05-14T08:15:47;9.53;;;7.70;;
57401;SDS011;43226;51.110;6.998;2023-05-14T08:18:13;6.60;;;6.00;;
57401;SDS011;43226;51.110;6.998;2023-05-14T08:20:38;8.37;;;7.50;;
57401;SDS011;43226;51.110;6.998;2023-05-14T08:23:03;8.33;;;7.13;;
57401;SDS011;43226;51.110;6.998;2023-05-14T08:25:28;10.50;;;7.80;;
57401;SDS011;43226;51.110;6.998;2023-05-14T08:27:53;9.53;;;7.70;;
57401;SDS011;43226;51.110;6.998;2023-05-14T08:30:19;7.50;;;6.50;;
57401;SDS011;43226;51.110;6.998;2023-05-14T08:32:44;7.97;;;5.60;;
57401;SDS011;43226;51.110;6.998;2023-05-14T08:35:09;7.20;;;6.10;;
57401;SDS011;43226;51.110;6.998;2023-05-14T08:37:35;7.50;;;5.40;;
57401;SDS011;43226;51.110;6.998;2023-05-14T08:40:00;5.80;;;4.97;;
57401;SDS011;43226;51.110;6.998;2023-05-14T08:42:25;4.97;;;4.57;;
57401;SDS011;43226;51.110;6.998;2023-05-14T08:45:33;8.23;;;4.90;;
57401;SDS011;43226;51.110;6.998;2023-05-14T08:47:39;4.33;;;3.93;;
57401;SDS011;43226;51.110;6.998;2023-05-14T08:50:05;7.00;;;4.47;;
57401;SDS011;43226;51.110;6.998;2023-05-14T08:52:31;5.20;;;4.70;;
57401;SDS011;43226;51.110;6.998;2023-05-14T08:55:00;4.57;;;4.17;;
57401;SDS011;43226;51.110;6.998;2023-05-14T08:57:26;5.00;;;4.50;;
57401;SDS011;43226;51.110;6.998;2023-05-14T08:59:52;7.23;;;4.97;;
57401;SDS011;43226;51.110;6.998;2023-05-14T09:02:19;7.80;;;5.33;;
57401;SDS011;43226;51.110;6.998;2023-05-14T09:04:45;7.00;;;4.53;;
57401;SDS011;43226;51.110;6.998;2023-05-14T09:07:11;7.10;;;4.97;;
57401;SDS011;43226;51.110;6.998;2023-05-14T09:09:36;4.17;;;3.80;;
57401;SDS011;43226;51.110;6.998;2023-05-14T09:12:02;6.27;;;5.33;;
57401;SDS011;43226;51.110;6.998;2023-05-14T09:14:27;5.80;;;5.17;;
57401;SDS011;43226;51.110;6.998;2023-05-14T09:16:52;5.53;;;5.00;;
57401;SDS011;43226;51.110;6.998;2023-05-14T09:19:18;6.80;;;6.10;;
57401;SDS011;43226;51.110;6.998;2023-05-14T09:21:44;6.73;;;5.80;;
57401;SDS011;43226;51.110;6.998;2023-05-14T09:24:17;7.37;;;5.50;;
57401;SDS011;43226;51.110;6.998;2023-05-14T09:26:43;6.20;;;5.60;;
57401;SDS011;43226;51.110;6.998;2023-05-14T09:29:08;11.30;;;7.10;;
57401;SDS011;43226;51.110;6.998;2023-05-14T09:31:33;8.93;;;7.50;;
57401;SDS011;43226;51.110;6.998;2023-05-14T09:33:59;8.07;;;7.27;;
57401;SDS011;43226;51.110;6.998;2023-05-14T09:36:24;10.07;;;7.60;;
57401;SDS011;43226;51.110;6.998;2023-05-14T09:38:51;10.73;;;8.40;;
57401;SDS011;43226;51.110;6.998;2023-05-14T09:41:16;8.30;;;7.30;;
57401;SDS011;43226;51.110;6.998;2023-05-14T09:43:41;10.80;;;8.10;;
57401;SDS011;43226;51.110;6.998;2023-05-14T09:46:07;8.50;;;7.37;;
57401;SDS011;43226;51.110;6.998;2023-05-14T09:48:32;10.73;;;9.40;;
57401;SDS011;43226;51.110;6.998;2023-05-14T09:50:57;10.53;;;8.77;;
57401;SDS011;43226;51.110;6.998;2023-05-14T09:53:23;15.10;;;9.50;;
57401;SDS011;43226;51.110;6.998;2023-05-14T09:55:48;9.70;;;8.67;;
57401;SDS011;43226;51.110;6.998;2023-05-14T09:58:13;8.40;;;7.60;;
57401;SDS011;43226;51.110;6.998;2023-05-14T10:00:39;11.00;;;9.53;;
57401;SDS011;43226;51.110;6.998;2023-05-14T10:03:07;9.60;;;8.70;;
57401;SDS011;43226;51.110;6.998;2023-05-14T10:05:35;10.33;;;8.63;;
57401;SDS011;43226;51.110;6.998;2023-05-14T10:08:14;9.93;;;8.47;;
57401;SDS011;43226;51.110;6.998;2023-05-14T10:10:43;10.57;;;8.13;;
57401;SDS011;43226;51.110;6.998;2023-05-14T10:13:12;10.90;;;8.60;;
57401;SDS011;43226;51.110;6.998;2023-05-14T10:15:39;11.10;;;9.00;;
57401;SDS011;43226;51.110;6.998;2023-05-14T10:18:10;10.80;;;8.90;;
57401;SDS011;43226;51.110;6.998;2023-05-14T10:20:36;9.13;;;8.23;;
57401;SDS011;43226;51.110;6.998;2023-05-14T10:23:02;11.27;;;8.00;;
57401;SDS011;43226;51.110;6.998;2023-05-14T10:25:27;10.77;;;8.67;;
57401;SDS011;43226;51.110;6.998;2023-05-14T10:27:52;9.60;;;7.60;;
57401;SDS011;43226;51.110;6.998;2023-05-14T10:30:19;7.53;;;6.73;;
57401;SDS011;43226;51.110;6.998;2023-05-14T10:32:45;12.03;;;7.27;;
57401;SDS011;43226;51.110;6.998;2023-05-14T10:35:17;8.47;;;6.50;;
57401;SDS011;43226;51.110;6.998;2023-05-14T10:37:44;13.90;;;6.73;;
57401;SDS011;43226;51.110;6.998;2023-05-14T10:40:10;9.33;;;6.37;;
57401;SDS011;43226;51.110;6.998;2023-05-14T10:42:36;6.90;;;5.90;;
57401;SDS011;43226;51.110;6.998;2023-05-14T10:45:07;6.80;;;5.63;;
57401;SDS011;43226;51.110;6.998;2023-05-14T10:47:34;6.90;;;6.00;;
57401;SDS011;43226;51.110;6.998;2023-05-14T10:50:00;12.33;;;5.40;;
57401;SDS011;43226;51.110;6.998;2023-05-14T10:52:26;5.27;;;4.77;;
57401;SDS011;43226;51.110;6.998;2023-05-14T10:54:52;6.17;;;5.03;;
57401;SDS011;43226;51.110;6.998;2023-05-14T10:57:18;6.80;;;5.43;;
57401;SDS011;43226;51.110;6.998;2023-05-14T10:59:43;5.27;;;4.80;;
57401;SDS011;43226;51.110;6.998;2023-05-14T11:02:27;8.00;;;5.63;;
57401;SDS011;43226;51.110;6.998;2023-05-14T11:05:03;6.70;;;5.30;;
57401;SDS011;43226;51.110;6.998;2023-05-14T11:07:32;7.50;;;5.00;;
57401;SDS011;43226;51.110;6.998;2023-05-14T11:09:59;5.50;;;4.87;;
57401;SDS011;43226;51.110;6.998;2023-05-14T11:12:25;5.63;;;4.40;;
57401;SDS011;43226;51.110;6.998;2023-05-14T11:14:51;5.50;;;4.37;;
57401;SDS011;43226;51.110;6.998;2023-05-14T11:17:16;7.90;;;4.27;;
57401;SDS011;43226;51.110;6.998;2023-05-14T11:19:42;4.23;;;3.67;;
57401;SDS011;43226;51.110;6.998;2023-05-14T11:22:07;4.23;;;3.70;;
57401;SDS011;43226;51.110;6.998;2023-05-14T11:24:33;4.67;;;3.90;;
57401;SDS011;43226;51.110;6.998;2023-05-14T11:26:58;6.17;;;4.27;;
57401;SDS011;43226;51.110;6.998;2023-05-14T11:29:23;8.03;;;3.57;;
57401;SDS011;43226;51.110;6.998;2023-05-14T11:31:48;3.67;;;3.17;;
57401;SDS011;43226;51.110;6.998;2023-05-14T11:34:14;4.53;;;2.70;;
57401;SDS011;43226;51.110;6.998;2023-05-14T11:36:39;4.53;;;3.73;;
57401;SDS011;43226;51.110;6.998;2023-05-14T11:39:04;2.67;;;2.47;;
57401;SDS011;43226;51.110;6.998;2023-05-14T11:41:29;2.57;;;2.27;;
57401;SDS011;43226;51.110;6.998;2023-05-14T11:43:55;2.10;;;2.00;;
57401;SDS011;43226;51.110;6.998;2023-05-14T11:46:20;4.80;;;2.07;;
57401;SDS011;43226;51.110;6.998;2023-05-14T11:48:46;5.80;;;2.20;;
57401;SDS011;43226;51.110;6.998;2023-05-14T11:51:11;4.43;;;2.27;;
57401;SDS011;43226;51.110;6.998;2023-05-14T11:53:36;2.67;;;2.43;;
57401;SDS011;43226;51.110;6.998;2023-05-14T11:56:02;3.20;;;2.30;;
57401;SDS011;43226;51.110;6.998;2023-05-14T11:58:27;3.00;;;2.17;;
57401;SDS011;43226;51.110;6.998;2023-05-14T12:00:55;2.70;;;2.50;;
57401;SDS011;43226;51.110;6.998;2023-05-14T12:03:21;3.27;;;2.17;;
57401;SDS011;43226;51.110;6.998;2023-05-14T12:05:59;3.53;;;2.07;;
57401;SDS011;43226;51.110;6.998;2023-05-14T12:08:25;2.27;;;2.10;;
57401;SDS011;43226;51.110;6.998;2023-05-14T12:10:51;4.47;;;2.40;;
57401;SDS011;43226;51.110;6.998;2023-05-14T12:13:16;3.63;;;2.33;;
57401;SDS011;43226;51.110;6.998;2023-05-14T12:16:00;4.10;;;2.20;;
57401;SDS011;43226;51.110;6.998;2023-05-14T12:18:28;2.73;;;2.00;;
57401;SDS011;43226;51.110;6.998;2023-05-14T12:20:53;2.70;;;2.50;;
57401;SDS011;43226;51.110;6.998;2023-05-14T12:23:25;2.67;;;2.13;;
57401;SDS011;43226;51.110;6.998;2023-05-14T12:25:50;2.03;;;1.93;;
57401;SDS011;43226;51.110;6.998;2023-05-14T12:28:16;1.90;;;1.80;;
57401;SDS011;43226;51.110;6.998;2023-05-14T12:30:43;3.63;;;2.40;;
57401;SDS011;43226;51.110;6.998;2023-05-14T12:33:08;3.20;;;2.60;;
57401;SDS011;43226;51.110;6.998;2023-05-14T12:35:33;2.50;;;2.20;;
57401;SDS011;43226;51.110;6.998;2023-05-14T12:38:00;2.27;;;2.07;;
57401;SDS011;43226;51.110;6.998;2023-05-14T12:40:25;4.50;;;2.50;;
57401;SDS011;43226;51.110;6.998;2023-05-14T12:42:50;2.57;;;2.37;;
57401;SDS011;43226;51.110;6.998;2023-05-14T12:45:16;4.03;;;2.60;;
57401;SDS011;43226;51.110;6.998;2023-05-14T12:47:41;3.67;;;2.10;;
57401;SDS011;43226;51.110;6.998;2023-05-14T12:50:06;2.47;;;2.28;;
57401;SDS011;43226;51.110;6.998;2023-05-14T12:52:32;3.73;;;2.20;;
57401;SDS011;43226;51.110;6.998;2023-05-14T12:54:57;2.70;;;2.50;;
57401;SDS011;43226;51.110;6.998;2023-05-14T12:57:22;2.60;;;2.40;;
57401;SDS011;43226;51.110;6.998;2023-05-14T12:59:47;2.67;;;2.47;;
57401;SDS011;43226;51.110;6.998;2023-05-14T13:02:13;7.20;;;2.50;;
57401;SDS011;43226;51.110;6.998;2023-05-14T13:04:39;2.63;;;2.43;;
57401;SDS011;43226;51.110;6.998;2023-05-14T13:07:05;3.43;;;2.50;;
57401;SDS011;43226;51.110;6.998;2023-05-14T13:09:30;2.87;;;1.90;;
57401;SDS011;43226;51.110;6.998;2023-05-14T13:11:55;2.20;;;2.00;;
57401;SDS011;43226;51.110;6.998;2023-05-14T13:14:20;2.80;;;2.50;;
57401;SDS011;43226;51.110;6.998;2023-05-14T13:16:46;2.40;;;2.20;;
57401;SDS011;43226;51.110;6.998;2023-05-14T13:19:11;4.45;;;2.92;;
57401;SDS011;43226;51.110;6.998;2023-05-14T13:21:36;2.50;;;2.20;;
57401;SDS011;43226;51.110;6.998;2023-05-14T13:24:01;2.90;;;2.30;;
57401;SDS011;43226;51.110;6.998;2023-05-14T13:26:26;5.43;;;2.87;;
57401;SDS011;43226;51.110;6.998;2023-05-14T13:28:52;2.20;;;2.00;;
57401;SDS011;43226;51.110;6.998;2023-05-14T13:31:17;2.40;;;2.20;;
57401;SDS011;43226;51.110;6.998;2023-05-14T13:33:43;2.40;;;2.20;;
57401;SDS011;43226;51.110;6.998;2023-05-14T13:36:09;4.27;;;2.40;;
57401;SDS011;43226;51.110;6.998;2023-05-14T13:38:34;2.70;;;2.50;;
57401;SDS011;43226;51.110;6.998;2023-05-14T13:41:00;2.73;;;2.40;;
57401;SDS011;43226;51.110;6.998;2023-05-14T13:43:31;3.00;;;2.53;;
57401;SDS011;43226;51.110;6.998;2023-05-14T13:45:56;2.33;;;2.13;;
57401;SDS011;43226;51.110;6.998;2023-05-14T13:48:22;2.53;;;2.30;;
57401;SDS011;43226;51.110;6.998;2023-05-14T13:50:48;3.83;;;2.40;;
57401;SDS011;43226;51.110;6.998;2023-05-14T13:53:13;2.57;;;2.37;;
57401;SDS011;43226;51.110;6.998;2023-05-14T13:55:38;6.80;;;2.43;;
57401;SDS011;43226;51.110;6.998;2023-05-14T13:58:03;3.60;;;2.13;;
57401;SDS011;43226;51.110;6.998;2023-05-14T14:00:29;4.17;;;2.40;;
57401;SDS011;43226;51.110;6.998;2023-05-14T14:02:54;3.10;;;2.70;;
57401;SDS011;43226;51.110;6.998;2023-05-14T14:05:19;2.50;;;2.03;;
57401;SDS011;43226;51.110;6.998;2023-05-14T14:07:45;2.70;;;2.50;;
57401;SDS011;43226;51.110;6.998;2023-05-14T14:10:10;4.43;;;2.00;;
57401;SDS011;43226;51.110;6.998;2023-05-14T14:12:36;2.50;;;2.30;;
57401;SDS011;43226;51.110;6.998;2023-05-14T14:15:01;2.80;;;2.60;;
57401;SDS011;43226;51.110;6.998;2023-05-14T14:17:27;2.43;;;2.23;;
57401;SDS011;43226;51.110;6.998;2023-05-14T14:19:52;5.90;;;2.27;;
57401;SDS011;43226;51.110;6.998;2023-05-14T14:22:18;3.63;;;2.00;;
57401;SDS011;43226;51.110;6.998;2023-05-14T14:24:43;2.50;;;2.23;;
57401;SDS011;43226;51.110;6.998;2023-05-14T14:27:09;2.30;;;2.10;;
57401;SDS011;43226;51.110;6.998;2023-05-14T14:29:34;1.97;;;1.80;;
57401;SDS011;43226;51.110;6.998;2023-05-14T14:32:00;2.83;;;2.20;;
57401;SDS011;43226;51.110;6.998;2023-05-14T14:34:25;2.20;;;2.00;;
57401;SDS011;43226;51.110;6.998;2023-05-14T14:36:51;2.33;;;2.00;;
57401;SDS011;43226;51.110;6.998;2023-05-14T14:39:16;2.40;;;2.20;;